createdAt,value
2023-09-17T00:00:21.541Z,19.02
2023-09-17T00:02:48.708Z,19.11
2023-09-17T00:05:15.586Z,19.13
2023-09-17T00:07:43.233Z,19.03
2023-09-17T00:10:10.629Z,18.94
2023-09-17T00:12:37.593Z,18.90
2023-09-17T00:15:05.367Z,18.83
2023-09-17T00:17:32.218Z,18.70
2023-09-17T00:19:59.070Z,18.50
2023-09-17T00:22:26.092Z,18.58
2023-09-17T00:24:52.927Z,18.50
2023-09-17T00:27:19.635Z,18.44
2023-09-17T00:29:46.355Z,18.29
2023-09-17T00:32:13.084Z,18.13
2023-09-17T00:34:40.027Z,17.98
2023-09-17T00:37:08.681Z,17.83
2023-09-17T00:39:35.427Z,17.89
2023-09-17T00:42:02.226Z,17.82
2023-09-17T00:44:29.017Z,17.78
2023-09-17T00:46:57.341Z,17.66
2023-09-17T00:49:24.585Z,17.75
2023-09-17T00:51:51.443Z,17.78
2023-09-17T00:54:18.620Z,17.85
2023-09-17T00:56:45.666Z,17.83
2023-09-17T00:59:12.939Z,18.00
2023-09-17T01:01:39.762Z,18.15
2023-09-17T01:04:09.083Z,18.16
2023-09-17T01:06:40.086Z,18.09
2023-09-17T01:09:10.237Z,17.99
2023-09-17T01:11:37.473Z,17.95
2023-09-17T01:14:13.910Z,17.76
2023-09-17T01:16:42.687Z,17.82
2023-09-17T01:19:19.896Z,17.77
2023-09-17T01:21:55.282Z,17.56
2023-09-17T01:24:28.037Z,17.53
2023-09-17T01:27:14.308Z,17.58
2023-09-17T01:29:42.956Z,17.61
2023-09-17T01:32:13.507Z,17.60
2023-09-17T01:34:45.493Z,17.58
2023-09-17T01:37:24.379Z,17.60
2023-09-17T01:39:58.176Z,17.62
2023-09-17T01:42:26.759Z,17.52
2023-09-17T01:44:56.589Z,17.53
2023-09-17T01:47:24.953Z,17.43
2023-09-17T01:49:52.131Z,17.44
2023-09-17T01:52:23.641Z,17.43
2023-09-17T01:54:51.413Z,17.40
2023-09-17T01:57:18.167Z,17.32
2023-09-17T01:59:44.895Z,17.36
2023-09-17T02:02:11.739Z,17.31
2023-09-17T02:04:38.722Z,17.41
2023-09-17T02:07:05.486Z,17.34
2023-09-17T02:09:32.208Z,17.41
2023-09-17T02:11:58.939Z,17.46
2023-09-17T02:14:25.666Z,17.37
2023-09-17T02:16:52.632Z,17.41
2023-09-17T02:19:19.420Z,17.37
2023-09-17T02:21:46.174Z,17.41
2023-09-17T02:24:13.950Z,17.44
2023-09-17T02:26:42.136Z,17.55
2023-09-17T02:29:08.962Z,17.56
2023-09-17T02:31:36.069Z,17.57
2023-09-17T02:34:03.348Z,17.39
2023-09-17T02:36:30.067Z,17.44
2023-09-17T02:38:57.625Z,17.49
2023-09-17T02:41:24.398Z,17.38
2023-09-17T02:43:51.274Z,17.37
2023-09-17T02:46:19.546Z,17.32
2023-09-17T02:48:48.835Z,17.28
2023-09-17T02:51:16.488Z,17.28
2023-09-17T02:53:43.518Z,17.26
2023-09-17T02:56:10.237Z,17.24
2023-09-17T02:58:37.085Z,17.21
2023-09-17T03:01:16.305Z,17.12
2023-09-17T03:03:43.131Z,17.08
2023-09-17T03:06:11.795Z,17.03
2023-09-17T03:08:43.387Z,17.00
2023-09-17T03:11:14.571Z,16.94
2023-09-17T03:13:48.915Z,16.89
2023-09-17T03:16:20.203Z,16.87
2023-09-17T03:18:47.136Z,16.84
2023-09-17T03:21:14.039Z,16.74
2023-09-17T03:23:40.804Z,16.73
2023-09-17T03:26:10.308Z,16.76
2023-09-17T03:28:37.219Z,16.69
2023-09-17T03:31:05.360Z,16.61
2023-09-17T03:33:32.710Z,16.50
2023-09-17T03:36:00.462Z,16.57
2023-09-17T03:38:27.250Z,16.50
2023-09-17T03:40:54.329Z,16.55
2023-09-17T03:43:21.276Z,16.56
2023-09-17T03:45:48.669Z,16.54
2023-09-17T03:48:15.586Z,16.54
2023-09-17T03:50:43.937Z,16.41
2023-09-17T03:53:11.521Z,16.27
2023-09-17T03:55:39.233Z,16.23
2023-09-17T03:58:07.010Z,16.19
2023-09-17T04:00:40.333Z,16.07
2023-09-17T04:03:09.611Z,16.13
2023-09-17T04:05:37.479Z,16.12
2023-09-17T04:08:04.554Z,16.11
2023-09-17T04:10:31.739Z,16.12
2023-09-17T04:12:58.468Z,16.13
2023-09-17T04:15:25.219Z,16.14
2023-09-17T04:17:52.797Z,16.17
2023-09-17T04:20:20.667Z,16.20
2023-09-17T04:22:50.274Z,16.22
2023-09-17T04:25:20.054Z,16.23
2023-09-17T04:27:49.094Z,16.22
2023-09-17T04:30:19.111Z,16.19
2023-09-17T04:32:48.076Z,16.21
2023-09-17T04:35:19.795Z,16.18
2023-09-17T04:37:48.896Z,16.15
2023-09-17T04:40:19.405Z,16.16
2023-09-17T04:42:49.631Z,16.16
2023-09-17T04:45:39.173Z,16.17
2023-09-17T04:48:22.628Z,16.10
2023-09-17T04:50:49.791Z,16.06
2023-09-17T04:53:17.983Z,15.99
2023-09-17T04:55:46.737Z,16.00
2023-09-17T04:58:15.566Z,15.96
2023-09-17T05:00:43.024Z,15.93
2023-09-17T05:03:09.876Z,15.95
2023-09-17T05:05:36.703Z,15.97
2023-09-17T05:08:04.491Z,15.96
2023-09-17T05:10:31.294Z,15.97
2023-09-17T05:12:58.337Z,15.90
2023-09-17T05:15:25.700Z,15.90
2023-09-17T05:17:55.756Z,15.85
2023-09-17T05:20:23.219Z,15.91
2023-09-17T05:22:50.448Z,15.97
2023-09-17T05:25:17.338Z,16.00
2023-09-17T05:27:45.099Z,16.03
2023-09-17T05:30:13.318Z,16.04
2023-09-17T05:32:40.608Z,16.06
2023-09-17T05:35:09.040Z,16.10
2023-09-17T05:37:36.512Z,16.15
2023-09-17T05:40:08.018Z,16.28
2023-09-17T05:42:34.938Z,16.50
2023-09-17T05:45:02.037Z,16.58
2023-09-17T05:47:29.870Z,16.75
2023-09-17T05:49:59.042Z,16.89
2023-09-17T05:52:29.887Z,16.98
2023-09-17T05:54:56.891Z,17.11
2023-09-17T05:57:23.583Z,17.30
2023-09-17T05:59:50.535Z,17.41
2023-09-17T06:02:17.329Z,17.46
2023-09-17T06:04:44.950Z,17.46
2023-09-17T06:07:11.715Z,17.56
2023-09-17T06:09:38.467Z,17.61
2023-09-17T06:12:06.008Z,17.63
2023-09-17T06:14:33.103Z,17.68
2023-09-17T06:16:59.865Z,17.70
2023-09-17T06:19:30.502Z,17.68
2023-09-17T06:21:57.757Z,17.81
2023-09-17T06:24:24.566Z,17.86
2023-09-17T06:26:51.644Z,17.91
2023-09-17T06:29:19.123Z,17.96
2023-09-17T06:31:46.654Z,17.85
2023-09-17T06:34:13.935Z,17.86
2023-09-17T06:36:40.682Z,17.92
2023-09-17T06:39:08.178Z,17.97
2023-09-17T06:41:38.058Z,17.98
2023-09-17T06:44:07.208Z,17.97
2023-09-17T06:46:34.338Z,18.02
2023-09-17T06:49:01.781Z,18.09
2023-09-17T06:51:28.575Z,18.18
2023-09-17T06:53:55.417Z,18.18
2023-09-17T06:56:25.163Z,18.19
2023-09-17T06:58:52.163Z,18.24
2023-09-17T07:01:19.498Z,18.14
2023-09-17T07:03:46.260Z,18.08
2023-09-17T07:06:12.978Z,18.05
2023-09-17T07:08:39.742Z,18.03
2023-09-17T07:11:06.564Z,18.05
2023-09-17T07:13:33.410Z,18.18
2023-09-17T07:16:00.556Z,18.24
2023-09-17T07:18:27.626Z,18.43
2023-09-17T07:20:54.429Z,18.68
2023-09-17T07:23:21.149Z,19.05
2023-09-17T07:25:48.175Z,19.29
2023-09-17T07:28:15.090Z,19.40
2023-09-17T07:30:41.914Z,19.39
2023-09-17T07:33:08.792Z,19.27
2023-09-17T07:35:39.258Z,19.20
2023-09-17T07:38:06.580Z,19.12
2023-09-17T07:40:34.506Z,19.12
2023-09-17T07:43:02.430Z,19.17
2023-09-17T07:45:29.358Z,19.21
2023-09-17T07:47:56.739Z,19.33
2023-09-17T07:50:23.571Z,19.59
2023-09-17T07:52:50.372Z,19.77
2023-09-17T07:55:20.188Z,19.94
2023-09-17T07:57:47.462Z,20.29
2023-09-17T08:00:17.301Z,20.73
2023-09-17T08:02:45.869Z,21.13
2023-09-17T08:05:13.219Z,21.45
2023-09-17T08:07:43.544Z,21.64
2023-09-17T08:10:11.111Z,21.41
2023-09-17T08:12:38.028Z,21.17
2023-09-17T08:15:05.220Z,21.23
2023-09-17T08:17:32.111Z,21.31
2023-09-17T08:19:59.938Z,21.42
2023-09-17T08:22:28.579Z,21.57
2023-09-17T08:24:55.363Z,22.02
2023-09-17T08:27:22.898Z,22.33
2023-09-17T08:29:49.761Z,22.65
2023-09-17T08:32:16.637Z,23.27
2023-09-17T08:34:43.410Z,23.25
2023-09-17T08:37:10.322Z,23.35
2023-09-17T08:39:37.202Z,23.54
2023-09-17T08:42:04.808Z,23.86
2023-09-17T08:44:37.086Z,24.26
2023-09-17T08:47:04.137Z,24.30
2023-09-17T08:49:31.121Z,23.93
2023-09-17T08:52:01.044Z,23.55
2023-09-17T08:54:38.638Z,23.42
2023-09-17T08:57:06.807Z,23.46
2023-09-17T08:59:38.486Z,23.72
2023-09-17T09:02:09.275Z,24.08
2023-09-17T09:04:37.943Z,24.00
2023-09-17T09:07:07.112Z,23.66
2023-09-17T09:09:37.413Z,23.53
2023-09-17T09:12:05.151Z,23.55
2023-09-17T09:14:32.380Z,23.75
2023-09-17T09:17:02.996Z,24.09
2023-09-17T09:19:29.837Z,24.66
2023-09-17T09:21:56.688Z,25.13
2023-09-17T09:24:30.785Z,25.70
2023-09-17T09:26:59.843Z,26.00
2023-09-17T09:29:28.960Z,26.26
2023-09-17T09:31:58.216Z,26.35
2023-09-17T09:34:26.583Z,26.35
2023-09-17T09:36:53.371Z,26.71
2023-09-17T09:39:22.043Z,27.00
2023-09-17T09:41:49.593Z,26.58
2023-09-17T09:44:19.479Z,26.40
2023-09-17T09:46:46.233Z,26.38
2023-09-17T09:49:13.138Z,26.35
2023-09-17T09:51:39.846Z,26.44
2023-09-17T09:54:06.684Z,26.32
2023-09-17T09:56:33.523Z,26.56
2023-09-17T09:59:01.647Z,26.99
2023-09-17T10:01:29.527Z,27.02
2023-09-17T10:03:59.803Z,26.99
2023-09-17T10:06:27.200Z,26.99
2023-09-17T10:08:54.521Z,27.03
2023-09-17T10:11:23.517Z,27.11
2023-09-17T10:13:54.756Z,26.85
2023-09-17T10:16:21.552Z,26.95
2023-09-17T10:18:51.416Z,27.02
2023-09-17T10:21:19.686Z,27.03
2023-09-17T10:23:46.989Z,26.72
2023-09-17T10:26:16.629Z,26.79
2023-09-17T10:28:45.469Z,26.68
2023-09-17T10:31:13.369Z,26.84
2023-09-17T10:33:44.564Z,26.92
2023-09-17T10:36:13.659Z,26.81
2023-09-17T10:38:42.345Z,26.57
2023-09-17T10:41:11.505Z,27.05
2023-09-17T10:43:38.522Z,27.15
2023-09-17T10:46:08.789Z,27.19
2023-09-17T10:48:35.691Z,27.22
2023-09-17T10:51:02.569Z,27.45
2023-09-17T10:53:29.401Z,27.43
2023-09-17T10:56:11.524Z,27.48
2023-09-17T10:58:39.907Z,27.36
2023-09-17T11:01:10.252Z,27.30
2023-09-17T11:03:41.066Z,27.08
2023-09-17T11:06:25.029Z,27.15
2023-09-17T11:08:55.052Z,27.28
2023-09-17T11:11:25.220Z,27.44
2023-09-17T11:13:53.834Z,27.73
2023-09-17T11:16:22.195Z,27.80
2023-09-17T11:19:11.927Z,27.68
2023-09-17T11:21:41.143Z,27.24
2023-09-17T11:24:12.158Z,27.34
2023-09-17T11:26:43.818Z,27.33
2023-09-17T11:29:11.138Z,27.66
2023-09-17T11:32:01.376Z,27.84
2023-09-17T11:34:28.354Z,27.79
2023-09-17T11:36:56.193Z,27.84
2023-09-17T11:39:23.687Z,28.09
2023-09-17T11:41:56.640Z,28.01
2023-09-17T11:44:24.153Z,27.82
2023-09-17T11:46:51.286Z,27.93
2023-09-17T11:49:19.471Z,28.08
2023-09-17T11:51:47.744Z,28.11
2023-09-17T11:54:20.013Z,28.46
2023-09-17T11:56:54.924Z,28.37
2023-09-17T11:59:23.001Z,28.30
2023-09-17T12:01:58.541Z,28.29
2023-09-17T12:04:30.726Z,28.51
2023-09-17T12:06:58.548Z,28.46
2023-09-17T12:09:32.254Z,28.54
2023-09-17T12:12:00.565Z,28.46
2023-09-17T12:14:27.803Z,28.23
2023-09-17T12:16:54.830Z,27.86
2023-09-17T12:19:22.318Z,28.01
2023-09-17T12:21:52.114Z,28.05
2023-09-17T12:24:47.519Z,28.03
2023-09-17T12:27:26.054Z,28.29
2023-09-17T12:29:54.807Z,27.98
2023-09-17T12:32:25.962Z,28.19
2023-09-17T12:34:54.797Z,27.95
2023-09-17T12:37:22.657Z,27.85
2023-09-17T12:39:50.969Z,27.86
2023-09-17T12:42:18.756Z,27.85
2023-09-17T12:44:45.752Z,28.11
2023-09-17T12:47:12.987Z,28.01
2023-09-17T12:49:40.312Z,27.70
2023-09-17T12:52:08.595Z,27.76
2023-09-17T12:54:35.631Z,27.91
2023-09-17T12:57:02.382Z,27.85
2023-09-17T12:59:34.483Z,27.91
2023-09-17T13:02:04.963Z,27.55
2023-09-17T13:04:42.152Z,27.46
2023-09-17T13:07:20.564Z,27.70
2023-09-17T13:09:49.036Z,27.87
2023-09-17T13:12:19.607Z,27.93
2023-09-17T13:14:49.019Z,27.80
2023-09-17T13:17:17.218Z,27.55
2023-09-17T13:19:44.441Z,27.69
2023-09-17T13:22:12.750Z,27.62
2023-09-17T13:24:41.178Z,27.42
2023-09-17T13:27:09.846Z,27.16
2023-09-17T13:29:38.318Z,27.33
2023-09-17T13:32:08.734Z,27.72
2023-09-17T13:34:35.782Z,27.54
2023-09-17T13:37:02.788Z,27.65
2023-09-17T13:39:29.582Z,27.53
2023-09-17T13:42:01.612Z,27.24
2023-09-17T13:44:28.434Z,27.53
2023-09-17T13:46:57.098Z,27.95
2023-09-17T13:49:23.984Z,27.92
2023-09-17T13:51:50.815Z,27.66
2023-09-17T13:54:17.535Z,27.50
2023-09-17T13:56:44.596Z,27.48
2023-09-17T13:59:11.360Z,27.59
2023-09-17T14:01:40.246Z,27.77
2023-09-17T14:04:07.328Z,27.51
2023-09-17T14:06:34.065Z,27.79
2023-09-17T14:09:00.749Z,27.86
2023-09-17T14:11:28.449Z,28.07
2023-09-17T14:13:55.317Z,28.20
2023-09-17T14:16:22.081Z,28.25
2023-09-17T14:18:51.909Z,27.91
2023-09-17T14:21:18.955Z,27.60
2023-09-17T14:23:45.772Z,27.72
2023-09-17T14:26:12.558Z,27.60
2023-09-17T14:28:39.332Z,27.56
2023-09-17T14:31:06.080Z,27.45
2023-09-17T14:33:32.919Z,27.51
2023-09-17T14:35:59.651Z,27.35
2023-09-17T14:38:26.349Z,27.11
2023-09-17T14:40:53.102Z,27.27
2023-09-17T14:43:20.760Z,27.33
2023-09-17T14:45:47.620Z,27.43
2023-09-17T14:48:14.396Z,27.20
2023-09-17T14:50:41.093Z,26.99
2023-09-17T14:53:07.833Z,26.98
2023-09-17T14:55:34.530Z,26.96
2023-09-17T14:58:01.272Z,26.88
2023-09-17T15:00:28.078Z,26.88
2023-09-17T15:02:55.062Z,26.83
2023-09-17T15:05:21.943Z,26.78
2023-09-17T15:07:48.794Z,26.62
2023-09-17T15:10:15.555Z,26.67
2023-09-17T15:12:42.284Z,26.60
2023-09-17T15:15:09.442Z,26.50
2023-09-17T15:17:37.136Z,26.48
2023-09-17T15:20:05.734Z,26.50
2023-09-17T15:22:34.647Z,26.38
2023-09-17T15:25:01.504Z,26.42
2023-09-17T15:27:29.189Z,26.19
2023-09-17T15:29:55.966Z,26.18
2023-09-17T15:32:24.119Z,26.19
2023-09-17T15:34:51.443Z,26.08
2023-09-17T15:37:18.315Z,26.05
2023-09-17T15:39:45.885Z,25.98
2023-09-17T15:42:12.693Z,25.88
2023-09-17T15:44:39.370Z,25.93
2023-09-17T15:47:06.141Z,25.83
2023-09-17T15:49:32.908Z,25.90
2023-09-17T15:51:59.808Z,25.83
2023-09-17T15:54:26.585Z,25.82
2023-09-17T15:56:53.365Z,25.66
2023-09-17T15:59:20.108Z,25.66
2023-09-17T16:01:47.014Z,25.56
2023-09-17T16:04:13.892Z,25.53
2023-09-17T16:06:40.956Z,25.53
2023-09-17T16:09:07.690Z,25.50
2023-09-17T16:11:34.415Z,25.36
2023-09-17T16:14:01.172Z,25.30
2023-09-17T16:16:28.093Z,25.26
2023-09-17T16:18:54.970Z,25.18
2023-09-17T16:21:21.830Z,25.14
2023-09-17T16:23:48.550Z,25.16
2023-09-17T16:26:15.533Z,25.09
2023-09-17T16:28:42.277Z,25.02
2023-09-17T16:31:09.123Z,24.97
2023-09-17T16:33:36.026Z,24.92
2023-09-17T16:36:02.799Z,24.71
2023-09-17T16:38:29.555Z,24.62
2023-09-17T16:41:00.825Z,24.59
2023-09-17T16:43:28.038Z,24.43
2023-09-17T16:45:55.012Z,24.47
2023-09-17T16:48:21.944Z,24.40
2023-09-17T16:50:48.624Z,24.31
2023-09-17T16:53:15.387Z,24.30
2023-09-17T16:55:42.926Z,24.29
2023-09-17T16:58:09.731Z,24.25
2023-09-17T17:00:36.369Z,24.26
2023-09-17T17:03:03.213Z,24.11
2023-09-17T17:05:29.930Z,24.13
2023-09-17T17:07:58.351Z,24.03
2023-09-17T17:10:25.821Z,24.00
2023-09-17T17:12:52.524Z,23.96
2023-09-17T17:15:19.321Z,23.92
2023-09-17T17:17:46.063Z,23.91
2023-09-17T17:20:13.890Z,23.80
2023-09-17T17:22:49.558Z,23.68
2023-09-17T17:25:17.079Z,23.65
2023-09-17T17:27:43.901Z,23.55
2023-09-17T17:30:11.604Z,23.55
2023-09-17T17:32:40.978Z,23.39
2023-09-17T17:35:09.064Z,23.44
2023-09-17T17:37:36.084Z,23.37
2023-09-17T17:40:02.868Z,23.31
2023-09-17T17:42:29.676Z,23.24
2023-09-17T17:44:57.169Z,23.15
2023-09-17T17:47:24.509Z,23.15
2023-09-17T17:49:52.125Z,23.11
2023-09-17T17:52:22.178Z,23.05
2023-09-17T17:54:49.482Z,23.02
2023-09-17T17:57:17.056Z,22.89
2023-09-17T17:59:43.856Z,22.86
2023-09-17T18:02:10.919Z,22.74
2023-09-17T18:04:37.705Z,22.83
2023-09-17T18:07:04.662Z,22.77
2023-09-17T18:09:31.923Z,22.74
2023-09-17T18:11:58.696Z,22.80
2023-09-17T18:14:25.556Z,22.78
2023-09-17T18:16:52.366Z,22.66
2023-09-17T18:19:19.120Z,22.70
2023-09-17T18:21:45.869Z,22.67
2023-09-17T18:24:12.606Z,22.50
2023-09-17T18:26:39.275Z,22.62
2023-09-17T18:29:07.965Z,22.57
2023-09-17T18:31:34.806Z,22.52
2023-09-17T18:34:01.702Z,22.53
2023-09-17T18:36:28.457Z,22.47
2023-09-17T18:38:55.476Z,22.47
2023-09-17T18:41:22.348Z,22.25
2023-09-17T18:43:49.295Z,22.23
2023-09-17T18:46:19.226Z,22.15
2023-09-17T18:48:46.089Z,21.98
2023-09-17T18:51:12.950Z,22.13
2023-09-17T18:53:39.634Z,22.08
2023-09-17T18:56:06.348Z,22.05
2023-09-17T18:58:33.108Z,21.99
2023-09-17T19:00:59.924Z,21.95
2023-09-17T19:03:26.767Z,21.86
2023-09-17T19:05:53.601Z,21.82
2023-09-17T19:08:20.381Z,21.84
2023-09-17T19:10:49.182Z,21.87
2023-09-17T19:13:17.270Z,21.85
2023-09-17T19:15:45.933Z,21.90
2023-09-17T19:18:12.930Z,21.80
2023-09-17T19:20:39.806Z,21.77
2023-09-17T19:23:07.928Z,21.78
2023-09-17T19:25:35.057Z,21.70
2023-09-17T19:28:01.872Z,21.60
2023-09-17T19:30:28.601Z,21.59
2023-09-17T19:32:55.433Z,21.55
2023-09-17T19:35:22.742Z,21.52
2023-09-17T19:37:49.793Z,21.52
2023-09-17T19:40:16.524Z,21.52
2023-09-17T19:42:43.535Z,21.53
2023-09-17T19:45:10.479Z,21.51
2023-09-17T19:47:37.345Z,21.48
2023-09-17T19:50:04.591Z,21.44
2023-09-17T19:52:31.378Z,21.37
2023-09-17T19:54:58.150Z,21.48
2023-09-17T19:57:25.558Z,21.45
2023-09-17T19:59:52.746Z,21.39
2023-09-17T20:02:20.738Z,21.31
2023-09-17T20:04:47.708Z,21.22
2023-09-17T20:07:14.468Z,21.15
2023-09-17T20:09:41.213Z,21.11
2023-09-17T20:12:08.371Z,21.06
2023-09-17T20:14:35.140Z,21.00
2023-09-17T20:17:01.868Z,20.95
2023-09-17T20:19:28.629Z,20.95
2023-09-17T20:21:55.394Z,20.83
2023-09-17T20:24:22.158Z,20.86
2023-09-17T20:26:48.891Z,20.85
2023-09-17T20:29:15.694Z,20.82
2023-09-17T20:31:42.665Z,20.76
2023-09-17T20:34:10.206Z,20.71
2023-09-17T20:36:36.982Z,20.73
2023-09-17T20:39:06.813Z,20.68
2023-09-17T20:41:34.284Z,20.65
2023-09-17T20:44:01.112Z,20.61
2023-09-17T20:46:27.803Z,20.60
2023-09-17T20:48:57.578Z,20.59
2023-09-17T20:51:26.249Z,20.53
2023-09-17T20:53:53.298Z,20.55
2023-09-17T20:56:20.880Z,20.50
2023-09-17T20:58:48.882Z,20.58
2023-09-17T21:01:15.788Z,20.57
2023-09-17T21:03:43.726Z,20.49
2023-09-17T21:06:10.560Z,20.50
2023-09-17T21:08:37.464Z,20.39
2023-09-17T21:11:04.229Z,20.38
2023-09-17T21:13:31.108Z,20.36
2023-09-17T21:15:57.967Z,20.35
2023-09-17T21:18:24.904Z,20.36
2023-09-17T21:20:52.715Z,20.26
2023-09-17T21:23:19.437Z,20.20
2023-09-17T21:25:46.268Z,20.22
2023-09-17T21:28:12.982Z,20.20
2023-09-17T21:30:42.672Z,20.15
2023-09-17T21:33:09.365Z,20.10
2023-09-17T21:35:36.244Z,20.08
2023-09-17T21:38:03.048Z,20.11
2023-09-17T21:40:29.983Z,20.10
2023-09-17T21:42:56.694Z,20.08
2023-09-17T21:45:23.518Z,20.02
2023-09-17T21:47:50.308Z,20.08
2023-09-17T21:50:17.275Z,20.02
2023-09-17T21:52:44.180Z,19.94
2023-09-17T21:55:10.899Z,19.78
2023-09-17T21:57:37.594Z,19.68
2023-09-17T22:00:06.536Z,19.60
2023-09-17T22:02:33.360Z,19.56
2023-09-17T22:05:00.256Z,19.56
2023-09-17T22:07:27.524Z,19.59
2023-09-17T22:09:54.221Z,19.65
2023-09-17T22:12:21.220Z,19.60
2023-09-17T22:14:47.910Z,19.59
2023-09-17T22:17:17.634Z,19.64
2023-09-17T22:19:49.922Z,19.62
2023-09-17T22:22:16.775Z,19.62
2023-09-17T22:24:45.188Z,19.56
2023-09-17T22:27:13.642Z,19.57
2023-09-17T22:29:42.478Z,19.61
2023-09-17T22:32:09.168Z,19.62
2023-09-17T22:34:36.134Z,19.59
2023-09-17T22:37:03.061Z,19.42
2023-09-17T22:39:29.979Z,19.25
2023-09-17T22:41:56.648Z,19.11
2023-09-17T22:44:24.663Z,18.97
2023-09-17T22:46:52.318Z,18.90
2023-09-17T22:49:19.264Z,18.82
2023-09-17T22:51:45.994Z,18.92
2023-09-17T22:54:12.721Z,18.94
2023-09-17T22:56:39.441Z,18.96
2023-09-17T22:59:06.315Z,19.03
2023-09-17T23:01:33.543Z,19.00
2023-09-17T23:04:00.388Z,19.02
2023-09-17T23:06:27.875Z,19.00
2023-09-17T23:08:55.878Z,18.96
2023-09-17T23:11:22.895Z,18.93
2023-09-17T23:13:49.844Z,18.90
2023-09-17T23:16:16.906Z,18.78
2023-09-17T23:18:43.854Z,18.78
2023-09-17T23:21:14.791Z,18.82
2023-09-17T23:23:45.957Z,18.82
2023-09-17T23:26:14.168Z,18.88
2023-09-17T23:28:41.198Z,18.92
2023-09-17T23:31:09.921Z,18.92
2023-09-17T23:33:37.003Z,18.89
2023-09-17T23:36:04.371Z,18.84
2023-09-17T23:38:31.727Z,18.75
2023-09-17T23:40:58.728Z,18.62
2023-09-17T23:43:25.709Z,18.60
2023-09-17T23:45:52.936Z,18.58
2023-09-17T23:48:19.752Z,18.58
2023-09-17T23:50:46.896Z,18.56
2023-09-17T23:53:13.649Z,18.57
2023-09-17T23:55:40.653Z,18.58
2023-09-17T23:58:07.366Z,18.54
